Terminal Aerodrome Forecast
Issued by NWS Goodland, KS

Home | Current Version | Previous Version | Text Only | Print | Product List | Glossary On
Versions: 1 2 3 4 5 6 7 8 9 10 11 12 13 14 15 16
563
FTUS43 KGLD 231727
TAFGLD
TAF
KGLD 231727Z 2318/2418 17025G35KT P6SM SCT250
     FM240000 16020G25KT P6SM VCTS SCT060CB BKN150
     FM240500 20015KT P6SM SCT150
     FM240800 31011KT P6SM FEW250
     FM241500 35007KT P6SM SCT250=

USA.gov is the U.S. government's official web portal to all federal, state and local government web resources and services.